sensor_id;sensor_type;location;lat;lon;timestamp;P1;durP1;ratioP1;P2;durP2;ratioP2
4078;SDS011;2054;47.858;11.156;2022-07-10T02:30:30;9.30;;;6.32;;
4078;SDS011;2054;47.858;11.156;2022-07-10T02:32:58;7.40;;;6.15;;
4078;SDS011;2054;47.858;11.156;2022-07-10T02:35:25;9.25;;;5.80;;
4078;SDS011;2054;47.858;11.156;2022-07-10T02:37:52;7.55;;;6.03;;
4078;SDS011;2054;47.858;11.156;2022-07-10T02:40:19;5.57;;;4.95;;
4078;SDS011;2054;47.858;11.156;2022-07-10T02:42:47;6.25;;;5.65;;
4078;SDS011;2054;47.858;11.156;2022-07-10T02:45:14;6.53;;;5.93;;
4078;SDS011;2054;47.858;11.156;2022-07-10T02:47:42;6.35;;;5.70;;
4078;SDS011;2054;47.858;11.156;2022-07-10T02:50:10;6.68;;;5.80;;
4078;SDS011;2054;47.858;11.156;2022-07-10T02:52:37;6.28;;;5.68;;
4078;SDS011;2054;47.858;11.156;2022-07-10T02:55:04;6.63;;;5.72;;
4078;SDS011;2054;47.858;11.156;2022-07-10T02:57:32;6.18;;;5.57;;
4078;SDS011;2054;47.858;11.156;2022-07-10T02:59:59;7.47;;;5.55;;
4078;SDS011;2054;47.858;11.156;2022-07-10T03:02:26;7.50;;;5.82;;
4078;SDS011;2054;47.858;11.156;2022-07-10T03:04:55;7.80;;;6.07;;
4078;SDS011;2054;47.858;11.156;2022-07-10T03:07:22;8.52;;;6.18;;
4078;SDS011;2054;47.858;11.156;2022-07-10T03:09:49;8.13;;;6.53;;
4078;SDS011;2054;47.858;11.156;2022-07-10T03:12:16;7.10;;;6.32;;
4078;SDS011;2054;47.858;11.156;2022-07-10T03:14:44;6.75;;;6.15;;
4078;SDS011;2054;47.858;11.156;2022-07-10T03:17:11;8.73;;;5.93;;
4078;SDS011;2054;47.858;11.156;2022-07-10T03:19:38;7.18;;;6.47;;
4078;SDS011;2054;47.858;11.156;2022-07-10T03:22:06;9.13;;;6.45;;
4078;SDS011;2054;47.858;11.156;2022-07-10T03:24:34;7.00;;;6.30;;
4078;SDS011;2054;47.858;11.156;2022-07-10T03:27:01;6.88;;;6.28;;
4078;SDS011;2054;47.858;11.156;2022-07-10T03:29:29;7.55;;;6.20;;
4078;SDS011;2054;47.858;11.156;2022-07-10T03:31:57;6.65;;;5.85;;
4078;SDS011;2054;47.858;11.156;2022-07-10T03:34:24;7.28;;;6.57;;
4078;SDS011;2054;47.858;11.156;2022-07-10T03:36:52;7.87;;;6.20;;
4078;SDS011;2054;47.858;11.156;2022-07-10T03:39:21;7.53;;;6.53;;
4078;SDS011;2054;47.858;11.156;2022-07-10T03:41:48;7.93;;;6.78;;
4078;SDS011;2054;47.858;11.156;2022-07-10T03:44:16;7.18;;;6.47;;
4078;SDS011;2054;47.858;11.156;2022-07-10T03:46:43;6.85;;;6.13;;
4078;SDS011;2054;47.858;11.156;2022-07-10T03:49:10;7.18;;;5.90;;
4078;SDS011;2054;47.858;11.156;2022-07-10T03:51:37;6.78;;;5.60;;
4078;SDS011;2054;47.858;11.156;2022-07-10T03:54:04;7.38;;;6.05;;
4078;SDS011;2054;47.858;11.156;2022-07-10T03:56:33;7.97;;;5.78;;
4078;SDS011;2054;47.858;11.156;2022-07-10T03:59:18;7.43;;;6.05;;
4078;SDS011;2054;47.858;11.156;2022-07-10T04:01:45;7.95;;;6.80;;
4078;SDS011;2054;47.858;11.156;2022-07-10T04:04:12;7.00;;;6.28;;
4078;SDS011;2054;47.858;11.156;2022-07-10T04:06:40;7.82;;;6.10;;
4078;SDS011;2054;47.858;11.156;2022-07-10T04:09:07;6.60;;;5.90;;
4078;SDS011;2054;47.858;11.156;2022-07-10T04:11:36;7.00;;;6.30;;
4078;SDS011;2054;47.858;11.156;2022-07-10T04:14:03;8.00;;;6.13;;
4078;SDS011;2054;47.858;11.156;2022-07-10T04:16:30;6.85;;;5.90;;
4078;SDS011;2054;47.858;11.156;2022-07-10T04:18:57;6.63;;;5.90;;
4078;SDS011;2054;47.858;11.156;2022-07-10T04:21:24;8.02;;;5.55;;
4078;SDS011;2054;47.858;11.156;2022-07-10T04:23:52;6.43;;;5.82;;
4078;SDS011;2054;47.858;11.156;2022-07-10T04:26:19;6.05;;;5.45;;
4078;SDS011;2054;47.858;11.156;2022-07-10T04:28:48;7.40;;;5.43;;
4078;SDS011;2054;47.858;11.156;2022-07-10T04:31:15;6.05;;;5.45;;
4078;SDS011;2054;47.858;11.156;2022-07-10T04:33:42;5.75;;;5.20;;
4078;SDS011;2054;47.858;11.156;2022-07-10T04:36:09;5.93;;;4.97;;
4078;SDS011;2054;47.858;11.156;2022-07-10T04:38:36;8.95;;;5.93;;
4078;SDS011;2054;47.858;11.156;2022-07-10T04:41:04;6.25;;;5.15;;
4078;SDS011;2054;47.858;11.156;2022-07-10T04:43:31;5.97;;;5.38;;
4078;SDS011;2054;47.858;11.156;2022-07-10T04:46:00;6.47;;;5.80;;
4078;SDS011;2054;47.858;11.156;2022-07-10T04:48:27;6.95;;;6.35;;
4078;SDS011;2054;47.858;11.156;2022-07-10T04:50:54;6.85;;;5.65;;
4078;SDS011;2054;47.858;11.156;2022-07-10T04:53:22;6.35;;;5.75;;
4078;SDS011;2054;47.858;11.156;2022-07-10T04:55:50;6.85;;;5.85;;
4078;SDS011;2054;47.858;11.156;2022-07-10T04:58:17;6.82;;;5.45;;
4078;SDS011;2054;47.858;11.156;2022-07-10T05:00:44;7.78;;;5.60;;
4078;SDS011;2054;47.858;11.156;2022-07-10T05:03:15;6.47;;;5.63;;
4078;SDS011;2054;47.858;11.156;2022-07-10T05:05:42;7.40;;;6.00;;
4078;SDS011;2054;47.858;11.156;2022-07-10T05:08:09;6.90;;;6.20;;
4078;SDS011;2054;47.858;11.156;2022-07-10T05:10:36;6.10;;;5.50;;
4078;SDS011;2054;47.858;11.156;2022-07-10T05:13:05;8.15;;;6.03;;
4078;SDS011;2054;47.858;11.156;2022-07-10T05:15:32;6.30;;;5.70;;
4078;SDS011;2054;47.858;11.156;2022-07-10T05:17:59;6.35;;;5.55;;
4078;SDS011;2054;47.858;11.156;2022-07-10T05:20:28;7.60;;;6.00;;
4078;SDS011;2054;47.858;11.156;2022-07-10T05:22:55;7.75;;;5.93;;
4078;SDS011;2054;47.858;11.156;2022-07-10T05:25:22;6.68;;;5.97;;
4078;SDS011;2054;47.858;11.156;2022-07-10T05:27:51;7.88;;;5.95;;
4078;SDS011;2054;47.858;11.156;2022-07-10T05:30:18;6.60;;;5.97;;
4078;SDS011;2054;47.858;11.156;2022-07-10T05:32:46;6.40;;;5.80;;
4078;SDS011;2054;47.858;11.156;2022-07-10T05:35:13;6.93;;;5.82;;
4078;SDS011;2054;47.858;11.156;2022-07-10T05:37:42;7.97;;;5.88;;
4078;SDS011;2054;47.858;11.156;2022-07-10T05:40:09;11.30;;;5.95;;
4078;SDS011;2054;47.858;11.156;2022-07-10T05:42:37;6.95;;;6.30;;
4078;SDS011;2054;47.858;11.156;2022-07-10T05:45:04;6.50;;;5.80;;
4078;SDS011;2054;47.858;11.156;2022-07-10T05:47:31;7.13;;;5.53;;
4078;SDS011;2054;47.858;11.156;2022-07-10T05:49:59;6.78;;;6.18;;
4078;SDS011;2054;47.858;11.156;2022-07-10T05:52:26;7.60;;;6.38;;
4078;SDS011;2054;47.858;11.156;2022-07-10T05:54:55;10.68;;;6.55;;
4078;SDS011;2054;47.858;11.156;2022-07-10T05:57:22;7.60;;;6.40;;
4078;SDS011;2054;47.858;11.156;2022-07-10T05:59:49;6.88;;;6.28;;
4078;SDS011;2054;47.858;11.156;2022-07-10T06:02:17;8.15;;;6.82;;
4078;SDS011;2054;47.858;11.156;2022-07-10T06:04:45;8.85;;;6.80;;
4078;SDS011;2054;47.858;11.156;2022-07-10T06:07:12;8.38;;;6.68;;
4078;SDS011;2054;47.858;11.156;2022-07-10T06:09:39;7.93;;;7.15;;
4078;SDS011;2054;47.858;11.156;2022-07-10T06:12:08;7.25;;;6.53;;
4078;SDS011;2054;47.858;11.156;2022-07-10T06:14:35;8.40;;;7.30;;
4078;SDS011;2054;47.858;11.156;2022-07-10T06:17:03;7.63;;;6.93;;
4078;SDS011;2054;47.858;11.156;2022-07-10T06:19:30;8.18;;;7.20;;
4078;SDS011;2054;47.858;11.156;2022-07-10T06:21:57;10.98;;;7.63;;
4078;SDS011;2054;47.858;11.156;2022-07-10T06:24:38;9.77;;;7.38;;
4078;SDS011;2054;47.858;11.156;2022-07-10T06:27:05;10.48;;;7.72;;
4078;SDS011;2054;47.858;11.156;2022-07-10T06:29:34;9.65;;;6.93;;
4078;SDS011;2054;47.858;11.156;2022-07-10T06:32:02;10.63;;;7.43;;
4078;SDS011;2054;47.858;11.156;2022-07-10T06:34:29;10.82;;;7.45;;
4078;SDS011;2054;47.858;11.156;2022-07-10T06:36:56;8.50;;;7.38;;
4078;SDS011;2054;47.858;11.156;2022-07-10T06:39:25;8.43;;;7.47;;
4078;SDS011;2054;47.858;11.156;2022-07-10T06:41:52;9.40;;;7.63;;
4078;SDS011;2054;47.858;11.156;2022-07-10T06:44:19;8.70;;;7.57;;
4078;SDS011;2054;47.858;11.156;2022-07-10T06:46:48;9.13;;;7.60;;
4078;SDS011;2054;47.858;11.156;2022-07-10T06:49:29;9.30;;;7.97;;
4078;SDS011;2054;47.858;11.156;2022-07-10T06:51:56;11.07;;;7.43;;
4078;SDS011;2054;47.858;11.156;2022-07-10T06:54:24;9.10;;;7.28;;
4078;SDS011;2054;47.858;11.156;2022-07-10T06:56:51;8.68;;;7.20;;
4078;SDS011;2054;47.858;11.156;2022-07-10T06:59:18;10.25;;;7.35;;
4078;SDS011;2054;47.858;11.156;2022-07-10T07:01:45;8.85;;;7.13;;
4078;SDS011;2054;47.858;11.156;2022-07-10T07:04:14;10.85;;;7.40;;
4078;SDS011;2054;47.858;11.156;2022-07-10T07:06:41;10.05;;;7.05;;
4078;SDS011;2054;47.858;11.156;2022-07-10T07:09:09;7.43;;;6.72;;
4078;SDS011;2054;47.858;11.156;2022-07-10T07:11:36;6.80;;;6.10;;
4078;SDS011;2054;47.858;11.156;2022-07-10T07:14:03;9.07;;;6.95;;
4078;SDS011;2054;47.858;11.156;2022-07-10T07:16:30;10.88;;;8.02;;
4078;SDS011;2054;47.858;11.156;2022-07-10T07:19:06;8.15;;;6.05;;
4078;SDS011;2054;47.858;11.156;2022-07-10T07:21:36;7.18;;;5.32;;
4078;SDS011;2054;47.858;11.156;2022-07-10T07:24:21;6.68;;;5.97;;
4078;SDS011;2054;47.858;11.156;2022-07-10T07:26:48;7.03;;;5.80;;
4078;SDS011;2054;47.858;11.156;2022-07-10T07:29:16;6.47;;;5.20;;
4078;SDS011;2054;47.858;11.156;2022-07-10T07:31:44;7.38;;;6.22;;
4078;SDS011;2054;47.858;11.156;2022-07-10T07:34:11;6.93;;;5.88;;
4078;SDS011;2054;47.858;11.156;2022-07-10T07:36:40;7.93;;;6.15;;
4078;SDS011;2054;47.858;11.156;2022-07-10T07:39:07;6.75;;;6.05;;
4078;SDS011;2054;47.858;11.156;2022-07-10T07:41:34;7.10;;;6.05;;
4078;SDS011;2054;47.858;11.156;2022-07-10T07:44:01;9.07;;;5.28;;
4078;SDS011;2054;47.858;11.156;2022-07-10T07:46:28;7.53;;;6.10;;
4078;SDS011;2054;47.858;11.156;2022-07-10T07:48:56;7.60;;;5.85;;
4078;SDS011;2054;47.858;11.156;2022-07-10T07:51:23;8.93;;;5.93;;
4078;SDS011;2054;47.858;11.156;2022-07-10T07:53:52;8.10;;;6.45;;
4078;SDS011;2054;47.858;11.156;2022-07-10T07:56:19;9.20;;;6.05;;
4078;SDS011;2054;47.858;11.156;2022-07-10T07:58:46;6.95;;;5.88;;
4078;SDS011;2054;47.858;11.156;2022-07-10T08:01:13;9.32;;;5.88;;
4078;SDS011;2054;47.858;11.156;2022-07-10T08:03:41;8.20;;;6.43;;
4078;SDS011;2054;47.858;11.156;2022-07-10T08:06:08;8.98;;;6.60;;
4078;SDS011;2054;47.858;11.156;2022-07-10T08:08:35;10.27;;;6.88;;
4078;SDS011;2054;47.858;11.156;2022-07-10T08:11:04;11.30;;;7.15;;
4078;SDS011;2054;47.858;11.156;2022-07-10T08:13:31;9.70;;;7.05;;
4078;SDS011;2054;47.858;11.156;2022-07-10T08:15:59;6.88;;;6.25;;
4078;SDS011;2054;47.858;11.156;2022-07-10T08:18:26;6.50;;;5.78;;
4078;SDS011;2054;47.858;11.156;2022-07-10T08:20:53;6.45;;;5.70;;
4078;SDS011;2054;47.858;11.156;2022-07-10T08:23:21;7.18;;;6.18;;
4078;SDS011;2054;47.858;11.156;2022-07-10T08:25:48;6.90;;;5.55;;
4078;SDS011;2054;47.858;11.156;2022-07-10T08:28:16;7.22;;;5.45;;
4078;SDS011;2054;47.858;11.156;2022-07-10T08:30:44;6.07;;;5.20;;
4078;SDS011;2054;47.858;11.156;2022-07-10T08:33:11;7.18;;;5.13;;
4078;SDS011;2054;47.858;11.156;2022-07-10T08:35:39;6.28;;;5.68;;
4078;SDS011;2054;47.858;11.156;2022-07-10T08:38:07;5.60;;;5.07;;
4078;SDS011;2054;47.858;11.156;2022-07-10T08:40:35;6.03;;;5.05;;
4078;SDS011;2054;47.858;11.156;2022-07-10T08:43:03;6.60;;;5.15;;
4078;SDS011;2054;47.858;11.156;2022-07-10T08:45:32;5.30;;;4.50;;
4078;SDS011;2054;47.858;11.156;2022-07-10T08:48:11;6.20;;;4.60;;
4078;SDS011;2054;47.858;11.156;2022-07-10T08:50:41;8.18;;;4.82;;
4078;SDS011;2054;47.858;11.156;2022-07-10T08:53:12;5.70;;;4.75;;
4078;SDS011;2054;47.858;11.156;2022-07-10T08:55:41;5.20;;;4.70;;
4078;SDS011;2054;47.858;11.156;2022-07-10T08:58:09;4.78;;;4.38;;
4078;SDS011;2054;47.858;11.156;2022-07-10T09:00:38;5.32;;;4.82;;
4078;SDS011;2054;47.858;11.156;2022-07-10T09:03:07;6.00;;;4.43;;
4078;SDS011;2054;47.858;11.156;2022-07-10T09:05:34;4.97;;;3.83;;
4078;SDS011;2054;47.858;11.156;2022-07-10T09:08:01;5.70;;;4.15;;
4078;SDS011;2054;47.858;11.156;2022-07-10T09:10:29;6.47;;;4.22;;
4078;SDS011;2054;47.858;11.156;2022-07-10T09:12:57;4.10;;;3.70;;
4078;SDS011;2054;47.858;11.156;2022-07-10T09:15:26;4.32;;;3.92;;
4078;SDS011;2054;47.858;11.156;2022-07-10T09:17:57;5.55;;;3.90;;
4078;SDS011;2054;47.858;11.156;2022-07-10T09:20:29;7.97;;;3.75;;
4078;SDS011;2054;47.858;11.156;2022-07-10T09:22:57;4.13;;;3.42;;
4078;SDS011;2054;47.858;11.156;2022-07-10T09:25:31;5.25;;;3.80;;
4078;SDS011;2054;47.858;11.156;2022-07-10T09:28:00;4.47;;;3.45;;
4078;SDS011;2054;47.858;11.156;2022-07-10T09:30:31;3.17;;;2.88;;
4078;SDS011;2054;47.858;11.156;2022-07-10T09:35:54;4.95;;;3.50;;
4078;SDS011;2054;47.858;11.156;2022-07-10T09:38:55;3.95;;;3.10;;
4078;SDS011;2054;47.858;11.156;2022-07-10T09:41:26;3.25;;;2.88;;
4078;SDS011;2054;47.858;11.156;2022-07-10T09:43:54;4.07;;;3.47;;
4078;SDS011;2054;47.858;11.156;2022-07-10T09:46:22;3.88;;;3.50;;
4078;SDS011;2054;47.858;11.156;2022-07-10T09:49:00;5.00;;;2.88;;
4078;SDS011;2054;47.858;11.156;2022-07-10T09:51:29;5.32;;;3.20;;
4078;SDS011;2054;47.858;11.156;2022-07-10T09:53:57;4.63;;;2.50;;
4078;SDS011;2054;47.858;11.156;2022-07-10T09:56:26;3.65;;;2.40;;
4078;SDS011;2054;47.858;11.156;2022-07-10T09:58:54;3.00;;;2.70;;
4078;SDS011;2054;47.858;11.156;2022-07-10T10:01:26;4.20;;;2.55;;
4078;SDS011;2054;47.858;11.156;2022-07-10T10:03:55;4.20;;;2.72;;
4078;SDS011;2054;47.858;11.156;2022-07-10T10:06:27;3.10;;;2.42;;
4078;SDS011;2054;47.858;11.156;2022-07-10T10:08:59;4.53;;;2.67;;
4078;SDS011;2054;47.858;11.156;2022-07-10T10:11:30;2.58;;;2.38;;
4078;SDS011;2054;47.858;11.156;2022-07-10T10:14:00;3.97;;;2.80;;
4078;SDS011;2054;47.858;11.156;2022-07-10T10:16:28;3.50;;;2.30;;
4078;SDS011;2054;47.858;11.156;2022-07-10T10:18:56;3.58;;;2.42;;
4078;SDS011;2054;47.858;11.156;2022-07-10T10:21:41;3.42;;;2.35;;
4078;SDS011;2054;47.858;11.156;2022-07-10T10:24:10;3.28;;;2.50;;
4078;SDS011;2054;47.858;11.156;2022-07-10T10:26:38;2.90;;;2.00;;
4078;SDS011;2054;47.858;11.156;2022-07-10T10:29:05;2.55;;;2.35;;
4078;SDS011;2054;47.858;11.156;2022-07-10T10:31:33;3.65;;;2.47;;
4078;SDS011;2054;47.858;11.156;2022-07-10T10:34:00;3.17;;;2.40;;
4078;SDS011;2054;47.858;11.156;2022-07-10T10:36:43;3.00;;;2.60;;
4078;SDS011;2054;47.858;11.156;2022-07-10T10:39:12;5.53;;;2.55;;
4078;SDS011;2054;47.858;11.156;2022-07-10T10:41:42;4.43;;;2.67;;
4078;SDS011;2054;47.858;11.156;2022-07-10T10:44:28;3.28;;;2.35;;
4078;SDS011;2054;47.858;11.156;2022-07-10T10:46:58;2.95;;;2.50;;
4078;SDS011;2054;47.858;11.156;2022-07-10T10:52:24;4.55;;;2.40;;
4078;SDS011;2054;47.858;11.156;2022-07-10T10:55:05;4.00;;;2.50;;
4078;SDS011;2054;47.858;11.156;2022-07-10T10:57:40;2.60;;;2.40;;
4078;SDS011;2054;47.858;11.156;2022-07-10T11:00:13;3.17;;;2.55;;
4078;SDS011;2054;47.858;11.156;2022-07-10T11:02:41;4.95;;;2.60;;
4078;SDS011;2054;47.858;11.156;2022-07-10T11:08:02;3.65;;;2.47;;
4078;SDS011;2054;47.858;11.156;2022-07-10T11:10:31;2.33;;;2.15;;
4078;SDS011;2054;47.858;11.156;2022-07-10T11:13:00;2.50;;;2.30;;
4078;SDS011;2054;47.858;11.156;2022-07-10T11:15:28;4.70;;;2.50;;
4078;SDS011;2054;47.858;11.156;2022-07-10T11:17:57;3.40;;;2.55;;
4078;SDS011;2054;47.858;11.156;2022-07-10T11:20:25;3.28;;;2.70;;
4078;SDS011;2054;47.858;11.156;2022-07-10T11:22:54;2.58;;;2.38;;
4078;SDS011;2054;47.858;11.156;2022-07-10T11:25:28;2.70;;;2.50;;
4078;SDS011;2054;47.858;11.156;2022-07-10T11:28:05;2.42;;;2.22;;
4078;SDS011;2054;47.858;11.156;2022-07-10T11:30:46;5.78;;;2.33;;
4078;SDS011;2054;47.858;11.156;2022-07-10T11:33:14;6.70;;;2.65;;
4078;SDS011;2054;47.858;11.156;2022-07-10T11:35:44;4.55;;;2.55;;
4078;SDS011;2054;47.858;11.156;2022-07-10T11:38:11;3.72;;;2.40;;
4078;SDS011;2054;47.858;11.156;2022-07-10T11:40:42;5.68;;;2.45;;
4078;SDS011;2054;47.858;11.156;2022-07-10T11:43:10;2.70;;;2.50;;
4078;SDS011;2054;47.858;11.156;2022-07-10T11:45:41;3.35;;;2.47;;
4078;SDS011;2054;47.858;11.156;2022-07-10T11:48:15;5.60;;;2.35;;
4078;SDS011;2054;47.858;11.156;2022-07-10T11:50:43;3.13;;;2.55;;
4078;SDS011;2054;47.858;11.156;2022-07-10T11:53:11;3.45;;;2.33;;
4078;SDS011;2054;47.858;11.156;2022-07-10T11:55:38;4.55;;;2.13;;
4078;SDS011;2054;47.858;11.156;2022-07-10T11:58:14;4.20;;;2.38;;
4078;SDS011;2054;47.858;11.156;2022-07-10T12:00:41;4.03;;;2.40;;
4078;SDS011;2054;47.858;11.156;2022-07-10T12:03:16;2.95;;;2.10;;
4078;SDS011;2054;47.858;11.156;2022-07-10T12:05:44;2.35;;;1.95;;
4078;SDS011;2054;47.858;11.156;2022-07-10T12:08:11;2.80;;;1.95;;
4078;SDS011;2054;47.858;11.156;2022-07-10T12:10:39;3.35;;;2.08;;
4078;SDS011;2054;47.858;11.156;2022-07-10T12:13:08;3.80;;;1.90;;
4078;SDS011;2054;47.858;11.156;2022-07-10T12:15:38;2.72;;;2.10;;
4078;SDS011;2054;47.858;11.156;2022-07-10T12:18:07;2.83;;;1.80;;
4078;SDS011;2054;47.858;11.156;2022-07-10T12:20:34;4.28;;;1.65;;
4078;SDS011;2054;47.858;11.156;2022-07-10T12:23:02;3.08;;;2.25;;
4078;SDS011;2054;47.858;11.156;2022-07-10T12:25:30;4.90;;;2.22;;
4078;SDS011;2054;47.858;11.156;2022-07-10T12:27:57;5.20;;;1.70;;
4078;SDS011;2054;47.858;11.156;2022-07-10T12:30:35;3.88;;;1.98;;
4078;SDS011;2054;47.858;11.156;2022-07-10T12:33:08;5.03;;;1.98;;
4078;SDS011;2054;47.858;11.156;2022-07-10T12:35:46;2.78;;;2.05;;
4078;SDS011;2054;47.858;11.156;2022-07-10T12:38:14;2.38;;;1.75;;
4078;SDS011;2054;47.858;11.156;2022-07-10T12:40:41;7.93;;;2.05;;
4078;SDS011;2054;47.858;11.156;2022-07-10T12:43:09;2.25;;;1.98;;
4078;SDS011;2054;47.858;11.156;2022-07-10T12:45:37;3.97;;;2.20;;
4078;SDS011;2054;47.858;11.156;2022-07-10T12:48:05;3.20;;;1.80;;
4078;SDS011;2054;47.858;11.156;2022-07-10T12:50:33;2.58;;;1.70;;
4078;SDS011;2054;47.858;11.156;2022-07-10T12:53:08;2.72;;;1.67;;
4078;SDS011;2054;47.858;11.156;2022-07-10T12:55:36;1.70;;;1.60;;
4078;SDS011;2054;47.858;11.156;2022-07-10T12:58:04;2.20;;;1.67;;
4078;SDS011;2054;47.858;11.156;2022-07-10T13:00:34;1.55;;;1.42;;
4078;SDS011;2054;47.858;11.156;2022-07-10T13:03:02;3.60;;;2.00;;
4078;SDS011;2054;47.858;11.156;2022-07-10T13:05:30;3.22;;;1.98;;
4078;SDS011;2054;47.858;11.156;2022-07-10T13:08:05;3.22;;;1.90;;
4078;SDS011;2054;47.858;11.156;2022-07-10T13:10:33;3.97;;;1.70;;
4078;SDS011;2054;47.858;11.156;2022-07-10T13:13:02;2.25;;;1.48;;
4078;SDS011;2054;47.858;11.156;2022-07-10T13:15:29;3.85;;;1.80;;
4078;SDS011;2054;47.858;11.156;2022-07-10T13:17:56;3.33;;;1.65;;
4078;SDS011;2054;47.858;11.156;2022-07-10T13:20:24;5.80;;;1.80;;
4078;SDS011;2054;47.858;11.156;2022-07-10T13:22:51;3.83;;;1.73;;
4078;SDS011;2054;47.858;11.156;2022-07-10T13:25:19;2.20;;;1.48;;
4078;SDS011;2054;47.858;11.156;2022-07-10T13:27:47;2.17;;;1.58;;
4078;SDS011;2054;47.858;11.156;2022-07-10T13:30:16;2.40;;;1.73;;
4078;SDS011;2054;47.858;11.156;2022-07-10T13:32:43;1.60;;;1.50;;
4078;SDS011;2054;47.858;11.156;2022-07-10T13:35:10;2.45;;;1.70;;
4078;SDS011;2054;47.858;11.156;2022-07-10T13:37:38;2.67;;;1.60;;
4078;SDS011;2054;47.858;11.156;2022-07-10T13:40:06;3.00;;;1.45;;
4078;SDS011;2054;47.858;11.156;2022-07-10T13:42:34;3.45;;;1.45;;
4078;SDS011;2054;47.858;11.156;2022-07-10T13:45:02;4.65;;;1.80;;
4078;SDS011;2054;47.858;11.156;2022-07-10T13:47:29;1.85;;;1.55;;
4078;SDS011;2054;47.858;11.156;2022-07-10T13:49:56;1.58;;;1.48;;
4078;SDS011;2054;47.858;11.156;2022-07-10T13:52:23;2.00;;;1.70;;
4078;SDS011;2054;47.858;11.156;2022-07-10T13:54:51;4.60;;;2.25;;
4078;SDS011;2054;47.858;11.156;2022-07-10T13:57:18;4.00;;;1.67;;
4078;SDS011;2054;47.858;11.156;2022-07-10T13:59:46;4.53;;;1.58;;
4078;SDS011;2054;47.858;11.156;2022-07-10T14:02:14;1.90;;;1.50;;
4078;SDS011;2054;47.858;11.156;2022-07-10T14:04:41;1.77;;;1.50;;
4078;SDS011;2054;47.858;11.156;2022-07-10T14:07:08;4.15;;;1.90;;
4078;SDS011;2054;47.858;11.156;2022-07-10T14:09:35;3.08;;;1.58;;
4078;SDS011;2054;47.858;11.156;2022-07-10T14:12:03;2.67;;;1.63;;
4078;SDS011;2054;47.858;11.156;2022-07-10T14:14:30;4.47;;;1.70;;
4078;SDS011;2054;47.858;11.156;2022-07-10T14:16:59;2.30;;;1.70;;
4078;SDS011;2054;47.858;11.156;2022-07-10T14:19:26;2.92;;;1.33;;
4078;SDS011;2054;47.858;11.156;2022-07-10T14:21:53;2.60;;;1.70;;
4078;SDS011;2054;47.858;11.156;2022-07-10T14:24:21;1.75;;;1.45;;
4078;SDS011;2054;47.858;11.156;2022-07-10T14:26:48;2.20;;;1.58;;
4078;SDS011;2054;47.858;11.156;2022-07-10T14:29:17;3.03;;;1.90;;
4078;SDS011;2054;47.858;11.156;2022-07-10T14:31:44;1.60;;;1.50;;
4078;SDS011;2054;47.858;11.156;2022-07-10T14:34:15;2.50;;;1.48;;
4078;SDS011;2054;47.858;11.156;2022-07-10T14:36:42;3.25;;;1.60;;
4078;SDS011;2054;47.858;11.156;2022-07-10T14:39:10;3.40;;;1.70;;
4078;SDS011;2054;47.858;11.156;2022-07-10T14:41:38;3.53;;;1.55;;
4078;SDS011;2054;47.858;11.156;2022-07-10T14:44:05;3.10;;;1.60;;
4078;SDS011;2054;47.858;11.156;2022-07-10T14:46:32;5.07;;;1.85;;
4078;SDS011;2054;47.858;11.156;2022-07-10T14:48:59;3.63;;;1.58;;
4078;SDS011;2054;47.858;11.156;2022-07-10T14:51:28;2.80;;;1.45;;
4078;SDS011;2054;47.858;11.156;2022-07-10T14:53:56;2.63;;;1.40;;
4078;SDS011;2054;47.858;11.156;2022-07-10T14:56:23;3.20;;;1.83;;
4078;SDS011;2054;47.858;11.156;2022-07-10T14:58:50;1.98;;;1.40;;
4078;SDS011;2054;47.858;11.156;2022-07-10T15:01:18;2.28;;;1.65;;
4078;SDS011;2054;47.858;11.156;2022-07-10T15:03:45;3.72;;;1.73;;
4078;SDS011;2054;47.858;11.156;2022-07-10T15:06:12;2.10;;;1.73;;
4078;SDS011;2054;47.858;11.156;2022-07-10T15:08:41;2.65;;;1.50;;
4078;SDS011;2054;47.858;11.156;2022-07-10T15:11:08;2.95;;;1.60;;
4078;SDS011;2054;47.858;11.156;2022-07-10T15:13:35;2.60;;;1.17;;
4078;SDS011;2054;47.858;11.156;2022-07-10T15:16:02;3.30;;;1.80;;
4078;SDS011;2054;47.858;11.156;2022-07-10T15:18:30;2.10;;;1.50;;
4078;SDS011;2054;47.858;11.156;2022-07-10T15:20:57;5.63;;;3.38;;
4078;SDS011;2054;47.858;11.156;2022-07-10T15:23:24;6.18;;;1.80;;
4078;SDS011;2054;47.858;11.156;2022-07-10T15:25:54;2.22;;;1.50;;
4078;SDS011;2054;47.858;11.156;2022-07-10T15:28:21;3.30;;;1.70;;
4078;SDS011;2054;47.858;11.156;2022-07-10T15:30:48;2.65;;;1.50;;
4078;SDS011;2054;47.858;11.156;2022-07-10T15:33:15;2.53;;;1.40;;
4078;SDS011;2054;47.858;11.156;2022-07-10T15:35:43;2.45;;;1.60;;
4078;SDS011;2054;47.858;11.156;2022-07-10T15:38:10;2.22;;;1.33;;
4078;SDS011;2054;47.858;11.156;2022-07-10T15:40:37;2.22;;;1.60;;
4078;SDS011;2054;47.858;11.156;2022-07-10T15:43:06;1.60;;;1.45;;
4078;SDS011;2054;47.858;11.156;2022-07-10T15:45:34;2.55;;;1.55;;
4078;SDS011;2054;47.858;11.156;2022-07-10T15:48:01;1.92;;;1.70;;
4078;SDS011;2054;47.858;11.156;2022-07-10T15:50:28;2.50;;;1.50;;
4078;SDS011;2054;47.858;11.156;2022-07-10T15:52:55;1.90;;;1.45;;
4078;SDS011;2054;47.858;11.156;2022-07-10T15:55:23;3.40;;;1.55;;
4078;SDS011;2054;47.858;11.156;2022-07-10T15:57:50;1.80;;;1.55;;
4078;SDS011;2054;47.858;11.156;2022-07-10T16:00:18;2.28;;;1.55;;
4078;SDS011;2054;47.858;11.156;2022-07-10T16:02:45;3.10;;;1.42;;
4078;SDS011;2054;47.858;11.156;2022-07-10T16:05:13;1.42;;;1.33;;
4078;SDS011;2054;47.858;11.156;2022-07-10T16:07:40;1.50;;;1.38;;
4078;SDS011;2054;47.858;11.156;2022-07-10T16:10:07;1.42;;;1.33;;
4078;SDS011;2054;47.858;11.156;2022-07-10T16:12:35;2.25;;;1.65;;
4078;SDS011;2054;47.858;11.156;2022-07-10T16:15:02;1.90;;;1.60;;
4078;SDS011;2054;47.858;11.156;2022-07-10T16:17:31;2.33;;;1.58;;
4078;SDS011;2054;47.858;11.156;2022-07-10T16:19:58;3.95;;;1.70;;
4078;SDS011;2054;47.858;11.156;2022-07-10T16:22:25;2.33;;;1.35;;
4078;SDS011;2054;47.858;11.156;2022-07-10T16:24:52;3.65;;;1.67;;
4078;SDS011;2054;47.858;11.156;2022-07-10T16:27:37;4.00;;;1.80;;
4078;SDS011;2054;47.858;11.156;2022-07-10T16:30:05;3.97;;;2.00;;
4078;SDS011;2054;47.858;11.156;2022-07-10T16:32:34;3.45;;;1.70;;
4078;SDS011;2054;47.858;11.156;2022-07-10T16:35:01;3.13;;;1.50;;
4078;SDS011;2054;47.858;11.156;2022-07-10T16:37:29;1.50;;;1.40;;
4078;SDS011;2054;47.858;11.156;2022-07-10T16:39:56;3.20;;;1.50;;
4078;SDS011;2054;47.858;11.156;2022-07-10T16:42:23;1.50;;;1.40;;
4078;SDS011;2054;47.858;11.156;2022-07-10T16:44:50;1.60;;;1.50;;
4078;SDS011;2054;47.858;11.156;2022-07-10T16:47:21;2.08;;;1.35;;
4078;SDS011;2054;47.858;11.156;2022-07-10T16:49:50;2.28;;;1.52;;
4078;SDS011;2054;47.858;11.156;2022-07-10T16:52:17;1.92;;;1.40;;
4078;SDS011;2054;47.858;11.156;2022-07-10T16:54:44;2.13;;;1.30;;
4078;SDS011;2054;47.858;11.156;2022-07-10T16:57:12;2.55;;;1.60;;
4078;SDS011;2054;47.858;11.156;2022-07-10T16:59:39;1.92;;;1.38;;
4078;SDS011;2054;47.858;11.156;2022-07-10T17:02:06;4.15;;;1.50;;
4078;SDS011;2054;47.858;11.156;2022-07-10T17:04:34;1.83;;;1.30;;
4078;SDS011;2054;47.858;11.156;2022-07-10T17:07:06;2.45;;;1.20;;
4078;SDS011;2054;47.858;11.156;2022-07-10T17:09:33;3.22;;;1.30;;
4078;SDS011;2054;47.858;11.156;2022-07-10T17:12:01;2.55;;;1.40;;
4078;SDS011;2054;47.858;11.156;2022-07-10T17:14:29;1.65;;;1.20;;
4078;SDS011;2054;47.858;11.156;2022-07-10T17:16:56;2.78;;;1.30;;
4078;SDS011;2054;47.858;11.156;2022-07-10T17:19:24;2.95;;;1.40;;
4078;SDS011;2054;47.858;11.156;2022-07-10T17:21:51;1.30;;;1.20;;
4078;SDS011;2054;47.858;11.156;2022-07-10T17:24:20;1.65;;;1.27;;
4078;SDS011;2054;47.858;11.156;2022-07-10T17:26:47;3.60;;;1.52;;
4078;SDS011;2054;47.858;11.156;2022-07-10T17:29:14;2.45;;;1.30;;
4078;SDS011;2054;47.858;11.156;2022-07-10T17:31:42;3.28;;;1.33;;
4078;SDS011;2054;47.858;11.156;2022-07-10T17:34:09;6.03;;;3.17;;
4078;SDS011;2054;47.858;11.156;2022-07-10T17:36:37;5.35;;;2.10;;
4078;SDS011;2054;47.858;11.156;2022-07-10T17:39:04;2.75;;;2.20;;
4078;SDS011;2054;47.858;11.156;2022-07-10T17:41:33;1.83;;;1.33;;
4078;SDS011;2054;47.858;11.156;2022-07-10T17:44:00;2.75;;;1.35;;
4078;SDS011;2054;47.858;11.156;2022-07-10T17:46:27;1.55;;;1.30;;